This is the latest recevied weather packets stored in our database for station/object N4BBA. If no packets are shown the sender has not sent any weather packets the latest 1 day(s).
| Time | Temp. | Humidity | Pressure | Rain* | Wind** | Luminosity | Snow |
|---|---|---|---|---|---|---|---|
| 1778078266 | 22.78° C | 65% | 1014.6 hPa | 0 mm | - | 378 W/m² | - |
| 1778077963 | 22.78° C | 66% | 1014.6 hPa | 0 mm | - | 371 W/m² | - |
| 1778075846 | 21.67° C | 72% | 1014.5 hPa | 0 mm | - | 415 W/m² | - |
| 1778071907 | 20° C | 79% | 1014.3 hPa | 0 mm | - | 227 W/m² | - |
| 1778071302 | 18.89° C | 81% | 1014.2 hPa | 0 mm | - | 181 W/m² | - |
| 1778069486 | 17.78° C | 84% | 1014.2 hPa | 0 mm | - | 120 W/m² | - |
| 1778066159 | 16.67° C | 88% | 1014 hPa | 0 mm | - | 42 W/m² | - |
| 1778065856 | 16.67° C | 88% | 1013.9 hPa | 0 mm | - | 34 W/m² | - |
| 1778064644 | 16.11° C | 89% | 1013.7 hPa | 0 mm | - | 17 W/m² | - |
| 1778063737 | 16.11° C | 89% | 1014.2 hPa | 0 mm | - | 11 W/m² | - |
| 1778063132 | 16.11° C | 89% | 1014.4 hPa | 0 mm | - | 6 W/m² | - |
| 1778062829 | 16.11° C | 89% | 1014.2 hPa | 0 mm | - | 3 W/m² | - |
| 1778062525 | 16.11° C | 89% | 1014.1 hPa | 0 mm | - | 2 W/m² | - |
| 1778061921 | 16.11° C | 88% | 1014 hPa | 0 mm | - | 0 W/m² | - |
| 1778061619 | 16.11° C | 88% | 1014.2 hPa | 0 mm | - | 0 W/m² | - |
| 1778060711 | 16.11° C | 88% | 1014.4 hPa | 0 mm | - | 0 W/m² | - |
| 1778060107 | 16.11° C | 88% | 1014.3 hPa | 0 mm | - | 0 W/m² | - |
| 1778059502 | 16.11° C | 88% | 1014.3 hPa | 0 mm | - | 0 W/m² | - |
| 1778059198 | 16.11° C | 88% | 1014.1 hPa | 0 mm | - | 0 W/m² | - |
| 1778058593 | 16.11° C | 87% | 1014.1 hPa | 0 mm | - | 0 W/m² | - |
| 1778057987 | 16.11° C | 87% | 1014 hPa | 0 mm | - | 0 W/m² | - |
| 1778057684 | 16.11° C | 87% | 1014 hPa | 0 mm | - | 0 W/m² | - |
| 1778056773 | 16.11° C | 87% | 1014.2 hPa | 0 mm | - | 0 W/m² | - |
| 1778056471 | 16.11° C | 87% | 1014.2 hPa | 0 mm | - | 0 W/m² | - |
| 1778056168 | 15.56° C | 87% | 1014.1 hPa | 0 mm | - | 0 W/m² | - |
* Rain latest hour (hover to see other rain measurements)
** Current wind speed in m/s (hover to see current wind gust speed)